Magnetic Springs, Ohio
Current Conditions -  °F | °C
As of 1:36 PM on Saturday 25 Oct 2014 (Local Time) from KDLZ Reporting Station
Clear Clear  
Wind Chill: 68°   Ceiling: Unl
Heat Index: 68°   Visibility: 10mi
Dew Point: 52°   Wind: 10mph
Humidity: 56%   Direction: 250°WSW
Pressure: 29.88"   Gusts: 18mph
Location:  40.35°N, 83.26°W
Report Text: KDLZ 251736Z AUTO 25009G16KT 10SM CLR 20/11 A2988 RMK AO2
Loading
Personal Weather Stations






























Interactive Weather Map
Tropical Storm Tracking
New forecast layout! Learn more

10-Day Weather Forecast

Advertisements
Track Severe Weather on mobile